sensor_id;sensor_type;location;lat;lon;timestamp;temperature;humidity
76139;DHT22;65138;50.946;7.074;2023-01-24T00:00:59;18.60;44.70
76139;DHT22;65138;50.946;7.074;2023-01-24T00:03:24;18.60;44.70
76139;DHT22;65138;50.946;7.074;2023-01-24T00:05:50;18.50;44.60
76139;DHT22;65138;50.946;7.074;2023-01-24T00:08:18;18.50;44.70
76139;DHT22;65138;50.946;7.074;2023-01-24T00:10:44;18.50;44.70
76139;DHT22;65138;50.946;7.074;2023-01-24T00:13:12;18.50;44.70
76139;DHT22;65138;50.946;7.074;2023-01-24T00:15:38;18.50;44.70
76139;DHT22;65138;50.946;7.074;2023-01-24T00:18:04;18.50;44.80
76139;DHT22;65138;50.946;7.074;2023-01-24T00:20:30;18.50;44.70
76139;DHT22;65138;50.946;7.074;2023-01-24T00:22:55;18.50;44.70
76139;DHT22;65138;50.946;7.074;2023-01-24T00:25:21;18.50;44.70
76139;DHT22;65138;50.946;7.074;2023-01-24T00:27:47;18.50;44.80
76139;DHT22;65138;50.946;7.074;2023-01-24T00:30:12;18.50;44.80
76139;DHT22;65138;50.946;7.074;2023-01-24T00:32:38;18.40;44.70
76139;DHT22;65138;50.946;7.074;2023-01-24T00:35:04;18.40;44.80
76139;DHT22;65138;50.946;7.074;2023-01-24T00:37:30;18.40;44.80
76139;DHT22;65138;50.946;7.074;2023-01-24T00:39:56;18.40;44.80
76139;DHT22;65138;50.946;7.074;2023-01-24T00:42:21;18.40;44.80
76139;DHT22;65138;50.946;7.074;2023-01-24T00:44:47;18.40;44.80
76139;DHT22;65138;50.946;7.074;2023-01-24T00:47:13;18.40;44.80
76139;DHT22;65138;50.946;7.074;2023-01-24T00:49:38;18.40;44.80
76139;DHT22;65138;50.946;7.074;2023-01-24T00:52:04;18.40;44.90
76139;DHT22;65138;50.946;7.074;2023-01-24T00:54:29;18.40;44.90
76139;DHT22;65138;50.946;7.074;2023-01-24T00:56:55;18.40;44.90
76139;DHT22;65138;50.946;7.074;2023-01-24T00:59:21;18.30;44.80
76139;DHT22;65138;50.946;7.074;2023-01-24T01:01:46;18.30;44.90
76139;DHT22;65138;50.946;7.074;2023-01-24T01:04:12;18.30;44.90
76139;DHT22;65138;50.946;7.074;2023-01-24T01:06:38;18.30;45.00
76139;DHT22;65138;50.946;7.074;2023-01-24T01:09:03;18.30;45.00
76139;DHT22;65138;50.946;7.074;2023-01-24T01:11:29;18.30;44.90
76139;DHT22;65138;50.946;7.074;2023-01-24T01:13:57;18.30;45.00
76139;DHT22;65138;50.946;7.074;2023-01-24T01:16:23;18.30;45.00
76139;DHT22;65138;50.946;7.074;2023-01-24T01:18:52;18.30;45.00
76139;DHT22;65138;50.946;7.074;2023-01-24T01:21:19;18.30;45.00
76139;DHT22;65138;50.946;7.074;2023-01-24T01:23:45;18.20;44.90
76139;DHT22;65138;50.946;7.074;2023-01-24T01:26:16;18.30;45.00
76139;DHT22;65138;50.946;7.074;2023-01-24T01:28:42;18.20;45.00
76139;DHT22;65138;50.946;7.074;2023-01-24T01:31:08;18.20;45.00
76139;DHT22;65138;50.946;7.074;2023-01-24T01:33:34;18.20;44.90
76139;DHT22;65138;50.946;7.074;2023-01-24T01:36:00;18.20;44.90
76139;DHT22;65138;50.946;7.074;2023-01-24T01:38:26;18.20;45.00
76139;DHT22;65138;50.946;7.074;2023-01-24T01:40:53;18.20;44.90
76139;DHT22;65138;50.946;7.074;2023-01-24T01:43:25;18.20;44.90
76139;DHT22;65138;50.946;7.074;2023-01-24T01:45:53;18.20;45.00
76139;DHT22;65138;50.946;7.074;2023-01-24T01:48:36;18.20;45.00
76139;DHT22;65138;50.946;7.074;2023-01-24T01:53:38;18.20;45.00
76139;DHT22;65138;50.946;7.074;2023-01-24T01:56:13;18.20;45.00
76139;DHT22;65138;50.946;7.074;2023-01-24T01:58:41;18.20;45.00
76139;DHT22;65138;50.946;7.074;2023-01-24T02:01:07;18.20;45.00
76139;DHT22;65138;50.946;7.074;2023-01-24T02:03:36;18.20;45.10
76139;DHT22;65138;50.946;7.074;2023-01-24T02:09:01;18.20;45.00
76139;DHT22;65138;50.946;7.074;2023-01-24T02:11:29;18.10;45.00
76139;DHT22;65138;50.946;7.074;2023-01-24T02:14:07;18.20;45.00
76139;DHT22;65138;50.946;7.074;2023-01-24T02:16:51;18.10;45.00
76139;DHT22;65138;50.946;7.074;2023-01-24T02:21:54;18.10;45.00
76139;DHT22;65138;50.946;7.074;2023-01-24T02:24:27;18.10;45.10
76139;DHT22;65138;50.946;7.074;2023-01-24T02:26:53;18.10;45.00
76139;DHT22;65138;50.946;7.074;2023-01-24T02:29:20;18.10;45.10
76139;DHT22;65138;50.946;7.074;2023-01-24T02:31:53;18.10;45.00
76139;DHT22;65138;50.946;7.074;2023-01-24T02:34:19;18.10;45.10
76139;DHT22;65138;50.946;7.074;2023-01-24T02:36:45;18.10;45.00
76139;DHT22;65138;50.946;7.074;2023-01-24T02:39:17;18.10;45.00
76139;DHT22;65138;50.946;7.074;2023-01-24T02:41:49;18.10;45.00
76139;DHT22;65138;50.946;7.074;2023-01-24T02:44:23;18.10;45.00
76139;DHT22;65138;50.946;7.074;2023-01-24T02:46:50;18.10;45.10
76139;DHT22;65138;50.946;7.074;2023-01-24T02:49:15;18.10;45.00
76139;DHT22;65138;50.946;7.074;2023-01-24T02:51:41;18.10;45.00
76139;DHT22;65138;50.946;7.074;2023-01-24T02:54:25;18.00;45.00
76139;DHT22;65138;50.946;7.074;2023-01-24T02:56:51;18.00;45.10
76139;DHT22;65138;50.946;7.074;2023-01-24T02:59:35;18.00;45.10
76139;DHT22;65138;50.946;7.074;2023-01-24T03:02:01;18.00;45.00
76139;DHT22;65138;50.946;7.074;2023-01-24T03:04:26;18.00;45.00
76139;DHT22;65138;50.946;7.074;2023-01-24T03:06:52;18.00;45.00
76139;DHT22;65138;50.946;7.074;2023-01-24T03:09:18;18.00;45.00
76139;DHT22;65138;50.946;7.074;2023-01-24T03:11:46;18.00;45.00
76139;DHT22;65138;50.946;7.074;2023-01-24T03:14:13;18.00;45.00
76139;DHT22;65138;50.946;7.074;2023-01-24T03:16:57;18.00;45.00
76139;DHT22;65138;50.946;7.074;2023-01-24T03:19:41;18.00;45.00
76139;DHT22;65138;50.946;7.074;2023-01-24T03:22:26;18.00;45.00
76139;DHT22;65138;50.946;7.074;2023-01-24T03:25:11;18.00;45.10
76139;DHT22;65138;50.946;7.074;2023-01-24T03:27:55;18.00;45.00
76139;DHT22;65138;50.946;7.074;2023-01-24T03:30:39;18.00;45.00
76139;DHT22;65138;50.946;7.074;2023-01-24T03:33:24;18.00;45.10
76139;DHT22;65138;50.946;7.074;2023-01-24T03:36:11;18.00;45.10
76139;DHT22;65138;50.946;7.074;2023-01-24T03:38:46;18.00;45.10
76139;DHT22;65138;50.946;7.074;2023-01-24T03:41:30;18.00;45.10
76139;DHT22;65138;50.946;7.074;2023-01-24T03:43:56;18.00;45.10
76139;DHT22;65138;50.946;7.074;2023-01-24T03:46:21;17.90;45.00
76139;DHT22;65138;50.946;7.074;2023-01-24T03:48:49;18.00;45.10
76139;DHT22;65138;50.946;7.074;2023-01-24T03:51:17;17.90;45.10
76139;DHT22;65138;50.946;7.074;2023-01-24T03:54:02;17.90;45.00
76139;DHT22;65138;50.946;7.074;2023-01-24T03:56:46;17.90;45.10
76139;DHT22;65138;50.946;7.074;2023-01-24T03:59:13;17.90;45.10
76139;DHT22;65138;50.946;7.074;2023-01-24T04:01:39;17.90;45.10
76139;DHT22;65138;50.946;7.074;2023-01-24T04:04:10;17.90;45.10
76139;DHT22;65138;50.946;7.074;2023-01-24T04:06:37;17.90;45.10
76139;DHT22;65138;50.946;7.074;2023-01-24T04:09:05;17.90;45.10
76139;DHT22;65138;50.946;7.074;2023-01-24T04:11:32;17.90;45.10
76139;DHT22;65138;50.946;7.074;2023-01-24T04:14:08;17.90;45.70
76139;DHT22;65138;50.946;7.074;2023-01-24T04:16:37;18.00;45.00
76139;DHT22;65138;50.946;7.074;2023-01-24T04:19:12;18.00;45.70
76139;DHT22;65138;50.946;7.074;2023-01-24T04:21:38;18.10;45.50
76139;DHT22;65138;50.946;7.074;2023-01-24T04:24:03;18.20;45.70
76139;DHT22;65138;50.946;7.074;2023-01-24T04:26:31;18.30;45.60
76139;DHT22;65138;50.946;7.074;2023-01-24T04:28:58;18.00;45.20
76139;DHT22;65138;50.946;7.074;2023-01-24T04:31:23;18.10;45.80
76139;DHT22;65138;50.946;7.074;2023-01-24T04:34:13;18.20;45.70
76139;DHT22;65138;50.946;7.074;2023-01-24T04:36:40;18.40;45.40
76139;DHT22;65138;50.946;7.074;2023-01-24T04:39:06;18.50;45.60
76139;DHT22;65138;50.946;7.074;2023-01-24T04:41:38;18.50;45.60
76139;DHT22;65138;50.946;7.074;2023-01-24T04:44:04;18.60;45.70
76139;DHT22;65138;50.946;7.074;2023-01-24T04:46:29;18.60;45.90
76139;DHT22;65138;50.946;7.074;2023-01-24T04:48:56;18.60;45.90
76139;DHT22;65138;50.946;7.074;2023-01-24T04:51:30;18.60;45.90
76139;DHT22;65138;50.946;7.074;2023-01-24T04:53:56;18.70;45.90
76139;DHT22;65138;50.946;7.074;2023-01-24T04:56:25;18.70;46.00
76139;DHT22;65138;50.946;7.074;2023-01-24T04:58:52;18.70;45.90
76139;DHT22;65138;50.946;7.074;2023-01-24T05:01:18;18.60;45.60
76139;DHT22;65138;50.946;7.074;2023-01-24T05:03:59;18.60;46.20
76139;DHT22;65138;50.946;7.074;2023-01-24T05:06:26;18.70;46.10
76139;DHT22;65138;50.946;7.074;2023-01-24T05:08:55;18.70;45.80
76139;DHT22;65138;50.946;7.074;2023-01-24T05:11:26;18.80;45.50
76139;DHT22;65138;50.946;7.074;2023-01-24T05:13:55;18.90;45.50
76139;DHT22;65138;50.946;7.074;2023-01-24T05:16:20;18.90;45.20
76139;DHT22;65138;50.946;7.074;2023-01-24T05:18:47;18.90;45.10
76139;DHT22;65138;50.946;7.074;2023-01-24T05:21:15;19.00;45.00
76139;DHT22;65138;50.946;7.074;2023-01-24T05:23:42;19.10;44.90
76139;DHT22;65138;50.946;7.074;2023-01-24T05:26:08;19.10;44.80
76139;DHT22;65138;50.946;7.074;2023-01-24T05:28:34;19.20;44.70
76139;DHT22;65138;50.946;7.074;2023-01-24T05:31:03;19.10;44.90
76139;DHT22;65138;50.946;7.074;2023-01-24T05:33:29;19.20;44.60
76139;DHT22;65138;50.946;7.074;2023-01-24T05:36:07;19.30;44.70
76139;DHT22;65138;50.946;7.074;2023-01-24T05:38:36;19.30;44.00
76139;DHT22;65138;50.946;7.074;2023-01-24T05:41:04;19.30;44.60
76139;DHT22;65138;50.946;7.074;2023-01-24T05:43:31;19.30;44.50
76139;DHT22;65138;50.946;7.074;2023-01-24T05:45:59;19.40;44.60
76139;DHT22;65138;50.946;7.074;2023-01-24T05:48:25;19.40;44.50
76139;DHT22;65138;50.946;7.074;2023-01-24T05:50:58;19.40;44.50
76139;DHT22;65138;50.946;7.074;2023-01-24T05:53:26;19.40;44.50
76139;DHT22;65138;50.946;7.074;2023-01-24T05:55:59;19.40;44.50
76139;DHT22;65138;50.946;7.074;2023-01-24T05:58:28;19.50;44.50
76139;DHT22;65138;50.946;7.074;2023-01-24T06:01:07;19.50;44.50
76139;DHT22;65138;50.946;7.074;2023-01-24T06:03:40;19.60;44.50
76139;DHT22;65138;50.946;7.074;2023-01-24T06:06:07;19.50;44.40
76139;DHT22;65138;50.946;7.074;2023-01-24T06:08:34;19.60;44.40
76139;DHT22;65138;50.946;7.074;2023-01-24T06:11:05;19.50;44.40
76139;DHT22;65138;50.946;7.074;2023-01-24T06:13:33;19.50;44.50
76139;DHT22;65138;50.946;7.074;2023-01-24T06:16:04;18.90;44.00
76139;DHT22;65138;50.946;7.074;2023-01-24T06:18:30;18.10;45.50
76139;DHT22;65138;50.946;7.074;2023-01-24T06:20:56;18.60;44.90
76139;DHT22;65138;50.946;7.074;2023-01-24T06:23:26;19.10;44.60
76139;DHT22;65138;50.946;7.074;2023-01-24T06:25:56;19.20;44.30
76139;DHT22;65138;50.946;7.074;2023-01-24T06:28:22;19.20;44.30
76139;DHT22;65138;50.946;7.074;2023-01-24T06:38:51;18.50;44.70
76139;DHT22;65138;50.946;7.074;2023-01-24T06:41:17;18.00;46.00
76139;DHT22;65138;50.946;7.074;2023-01-24T06:43:44;18.50;46.10
76139;DHT22;65138;50.946;7.074;2023-01-24T06:46:11;18.90;45.50
76139;DHT22;65138;50.946;7.074;2023-01-24T06:48:36;19.20;45.10
76139;DHT22;65138;50.946;7.074;2023-01-24T06:51:02;19.50;44.90
76139;DHT22;65138;50.946;7.074;2023-01-24T06:53:28;19.40;44.40
76139;DHT22;65138;50.946;7.074;2023-01-24T06:55:54;19.50;44.50
76139;DHT22;65138;50.946;7.074;2023-01-24T06:58:19;19.50;45.10
76139;DHT22;65138;50.946;7.074;2023-01-24T07:00:45;19.50;45.00
76139;DHT22;65138;50.946;7.074;2023-01-24T07:03:10;19.50;45.30
76139;DHT22;65138;50.946;7.074;2023-01-24T07:05:37;19.40;44.70
76139;DHT22;65138;50.946;7.074;2023-01-24T07:08:04;19.20;44.20
76139;DHT22;65138;50.946;7.074;2023-01-24T07:10:30;19.20;43.90
76139;DHT22;65138;50.946;7.074;2023-01-24T07:12:56;19.20;43.70
76139;DHT22;65138;50.946;7.074;2023-01-24T07:15:22;19.30;43.40
76139;DHT22;65138;50.946;7.074;2023-01-24T07:17:48;19.40;43.60
76139;DHT22;65138;50.946;7.074;2023-01-24T07:20:14;19.50;43.80
76139;DHT22;65138;50.946;7.074;2023-01-24T07:22:41;19.40;43.70
76139;DHT22;65138;50.946;7.074;2023-01-24T07:25:16;19.40;43.70
76139;DHT22;65138;50.946;7.074;2023-01-24T07:27:43;19.30;43.80
76139;DHT22;65138;50.946;7.074;2023-01-24T07:30:11;19.20;43.70
76139;DHT22;65138;50.946;7.074;2023-01-24T07:32:37;19.20;43.80
76139;DHT22;65138;50.946;7.074;2023-01-24T07:35:03;19.30;43.90
76139;DHT22;65138;50.946;7.074;2023-01-24T07:37:29;19.20;43.90
76139;DHT22;65138;50.946;7.074;2023-01-24T07:39:55;19.20;43.90
76139;DHT22;65138;50.946;7.074;2023-01-24T07:42:21;19.20;43.90
76139;DHT22;65138;50.946;7.074;2023-01-24T07:44:47;19.20;43.80
76139;DHT22;65138;50.946;7.074;2023-01-24T07:47:12;19.20;43.90
76139;DHT22;65138;50.946;7.074;2023-01-24T07:49:38;19.20;44.00
76139;DHT22;65138;50.946;7.074;2023-01-24T07:52:03;19.20;44.00
76139;DHT22;65138;50.946;7.074;2023-01-24T07:54:29;19.20;44.00
76139;DHT22;65138;50.946;7.074;2023-01-24T07:56:55;19.20;44.00
76139;DHT22;65138;50.946;7.074;2023-01-24T07:59:20;19.20;44.00
76139;DHT22;65138;50.946;7.074;2023-01-24T08:01:46;19.20;44.10
76139;DHT22;65138;50.946;7.074;2023-01-24T08:04:11;19.20;44.10
76139;DHT22;65138;50.946;7.074;2023-01-24T08:06:38;19.20;44.10
76139;DHT22;65138;50.946;7.074;2023-01-24T08:09:04;19.20;44.00
76139;DHT22;65138;50.946;7.074;2023-01-24T08:11:30;19.10;44.10
76139;DHT22;65138;50.946;7.074;2023-01-24T08:13:56;19.10;44.00
76139;DHT22;65138;50.946;7.074;2023-01-24T08:16:21;19.10;44.00
76139;DHT22;65138;50.946;7.074;2023-01-24T08:18:50;19.20;44.10
76139;DHT22;65138;50.946;7.074;2023-01-24T08:21:16;19.20;44.10
76139;DHT22;65138;50.946;7.074;2023-01-24T08:23:42;19.10;44.00
76139;DHT22;65138;50.946;7.074;2023-01-24T08:26:07;19.20;44.10
76139;DHT22;65138;50.946;7.074;2023-01-24T08:28:33;19.20;44.00
76139;DHT22;65138;50.946;7.074;2023-01-24T08:30:59;19.20;44.00
76139;DHT22;65138;50.946;7.074;2023-01-24T08:33:25;19.20;44.10
76139;DHT22;65138;50.946;7.074;2023-01-24T08:35:50;19.20;44.10
76139;DHT22;65138;50.946;7.074;2023-01-24T08:38:16;19.20;44.10
76139;DHT22;65138;50.946;7.074;2023-01-24T08:40:42;19.20;44.00
76139;DHT22;65138;50.946;7.074;2023-01-24T08:43:08;19.20;44.10
76139;DHT22;65138;50.946;7.074;2023-01-24T08:45:34;19.20;44.00
76139;DHT22;65138;50.946;7.074;2023-01-24T08:48:00;19.10;44.00
76139;DHT22;65138;50.946;7.074;2023-01-24T08:50:26;19.10;44.00
76139;DHT22;65138;50.946;7.074;2023-01-24T08:52:56;19.20;44.00
76139;DHT22;65138;50.946;7.074;2023-01-24T08:55:23;19.20;44.00
76139;DHT22;65138;50.946;7.074;2023-01-24T08:57:49;19.20;44.00
76139;DHT22;65138;50.946;7.074;2023-01-24T09:00:15;19.20;44.00
76139;DHT22;65138;50.946;7.074;2023-01-24T09:02:40;19.20;44.00
76139;DHT22;65138;50.946;7.074;2023-01-24T09:05:07;19.20;44.00
76139;DHT22;65138;50.946;7.074;2023-01-24T09:07:34;19.20;44.00
76139;DHT22;65138;50.946;7.074;2023-01-24T09:10:04;19.20;44.00
76139;DHT22;65138;50.946;7.074;2023-01-24T09:12:30;19.20;44.00
76139;DHT22;65138;50.946;7.074;2023-01-24T09:14:57;19.20;44.00
76139;DHT22;65138;50.946;7.074;2023-01-24T09:17:23;19.20;44.00
76139;DHT22;65138;50.946;7.074;2023-01-24T09:19:48;19.20;43.90
76139;DHT22;65138;50.946;7.074;2023-01-24T09:22:14;19.20;43.90
76139;DHT22;65138;50.946;7.074;2023-01-24T09:24:40;19.20;44.00
76139;DHT22;65138;50.946;7.074;2023-01-24T09:27:06;19.20;44.00
76139;DHT22;65138;50.946;7.074;2023-01-24T09:29:31;19.20;44.00
76139;DHT22;65138;50.946;7.074;2023-01-24T09:31:57;19.20;44.00
76139;DHT22;65138;50.946;7.074;2023-01-24T09:34:22;19.20;43.90
76139;DHT22;65138;50.946;7.074;2023-01-24T09:36:48;19.20;43.80
76139;DHT22;65138;50.946;7.074;2023-01-24T09:39:15;19.20;43.90
76139;DHT22;65138;50.946;7.074;2023-01-24T09:42:03;19.20;44.00
76139;DHT22;65138;50.946;7.074;2023-01-24T09:44:46;19.20;43.90
76139;DHT22;65138;50.946;7.074;2023-01-24T09:47:19;19.20;43.90
76139;DHT22;65138;50.946;7.074;2023-01-24T09:49:57;19.20;43.90
76139;DHT22;65138;50.946;7.074;2023-01-24T10:00:37;19.20;43.50
76139;DHT22;65138;50.946;7.074;2023-01-24T10:03:12;19.20;43.60
76139;DHT22;65138;50.946;7.074;2023-01-24T10:05:40;19.20;43.70
76139;DHT22;65138;50.946;7.074;2023-01-24T10:08:25;19.20;43.80
76139;DHT22;65138;50.946;7.074;2023-01-24T10:18:48;18.60;43.70
76139;DHT22;65138;50.946;7.074;2023-01-24T10:21:46;18.70;43.10
76139;DHT22;65138;50.946;7.074;2023-01-24T10:24:17;18.90;43.00
76139;DHT22;65138;50.946;7.074;2023-01-24T10:26:50;19.00;43.10
76139;DHT22;65138;50.946;7.074;2023-01-24T10:29:25;19.00;43.00
76139;DHT22;65138;50.946;7.074;2023-01-24T10:32:11;19.00;42.90
76139;DHT22;65138;50.946;7.074;2023-01-24T10:34:42;19.00;43.10
76139;DHT22;65138;50.946;7.074;2023-01-24T10:39:35;19.10;43.20
76139;DHT22;65138;50.946;7.074;2023-01-24T10:42:00;19.10;43.30
76139;DHT22;65138;50.946;7.074;2023-01-24T10:44:35;19.10;43.40
76139;DHT22;65138;50.946;7.074;2023-01-24T10:50:11;19.10;43.40
76139;DHT22;65138;50.946;7.074;2023-01-24T10:52:38;19.10;43.30
76139;DHT22;65138;50.946;7.074;2023-01-24T10:55:31;19.10;43.30
76139;DHT22;65138;50.946;7.074;2023-01-24T11:01:00;19.20;43.50
76139;DHT22;65138;50.946;7.074;2023-01-24T11:03:30;19.20;43.40
76139;DHT22;65138;50.946;7.074;2023-01-24T11:05:58;19.20;43.80
76139;DHT22;65138;50.946;7.074;2023-01-24T11:08:35;19.20;43.40
76139;DHT22;65138;50.946;7.074;2023-01-24T11:11:02;19.20;43.40
76139;DHT22;65138;50.946;7.074;2023-01-24T11:13:39;19.20;43.40
76139;DHT22;65138;50.946;7.074;2023-01-24T11:18:51;19.20;43.50
76139;DHT22;65138;50.946;7.074;2023-01-24T11:21:19;19.20;43.50
76139;DHT22;65138;50.946;7.074;2023-01-24T11:23:45;19.20;43.40
76139;DHT22;65138;50.946;7.074;2023-01-24T11:26:50;19.20;43.50
76139;DHT22;65138;50.946;7.074;2023-01-24T11:29:17;19.20;43.50
76139;DHT22;65138;50.946;7.074;2023-01-24T11:31:46;19.20;43.30
76139;DHT22;65138;50.946;7.074;2023-01-24T11:37:12;19.20;43.30
76139;DHT22;65138;50.946;7.074;2023-01-24T11:48:46;19.10;43.00
76139;DHT22;65138;50.946;7.074;2023-01-24T11:51:30;19.10;43.10
76139;DHT22;65138;50.946;7.074;2023-01-24T11:57:23;19.30;43.30
76139;DHT22;65138;50.946;7.074;2023-01-24T12:00:00;19.40;43.30
76139;DHT22;65138;50.946;7.074;2023-01-24T12:02:37;19.60;43.60
76139;DHT22;65138;50.946;7.074;2023-01-24T12:13:48;19.40;43.70
76139;DHT22;65138;50.946;7.074;2023-01-24T12:22:17;19.40;43.70
76139;DHT22;65138;50.946;7.074;2023-01-24T12:24:51;19.40;43.50
76139;DHT22;65138;50.946;7.074;2023-01-24T12:27:21;19.40;43.40
76139;DHT22;65138;50.946;7.074;2023-01-24T12:33:01;19.40;43.40
76139;DHT22;65138;50.946;7.074;2023-01-24T12:35:32;19.40;43.50
76139;DHT22;65138;50.946;7.074;2023-01-24T12:38:18;19.40;43.40
76139;DHT22;65138;50.946;7.074;2023-01-24T12:41:11;19.40;43.40
76139;DHT22;65138;50.946;7.074;2023-01-24T12:43:55;19.40;43.40
76139;DHT22;65138;50.946;7.074;2023-01-24T12:46:38;19.40;43.50
76139;DHT22;65138;50.946;7.074;2023-01-24T12:49:30;19.30;43.40
76139;DHT22;65138;50.946;7.074;2023-01-24T12:52:00;19.40;43.50
76139;DHT22;65138;50.946;7.074;2023-01-24T12:54:47;19.50;43.50
76139;DHT22;65138;50.946;7.074;2023-01-24T12:57:27;19.10;43.50
76139;DHT22;65138;50.946;7.074;2023-01-24T12:59:55;19.10;43.30
76139;DHT22;65138;50.946;7.074;2023-01-24T13:02:45;19.30;43.10
76139;DHT22;65138;50.946;7.074;2023-01-24T13:10:56;19.70;43.60
76139;DHT22;65138;50.946;7.074;2023-01-24T13:13:31;19.60;43.50
76139;DHT22;65138;50.946;7.074;2023-01-24T13:16:59;19.50;43.30
76139;DHT22;65138;50.946;7.074;2023-01-24T13:19:28;19.50;43.40
76139;DHT22;65138;50.946;7.074;2023-01-24T13:22:31;18.80;41.00
76139;DHT22;65138;50.946;7.074;2023-01-24T13:25:28;17.20;43.60
76139;DHT22;65138;50.946;7.074;2023-01-24T13:31:30;18.70;42.50
76139;DHT22;65138;50.946;7.074;2023-01-24T13:33:44;18.90;42.40
76139;DHT22;65138;50.946;7.074;2023-01-24T13:36:15;19.10;42.50
76139;DHT22;65138;50.946;7.074;2023-01-24T13:38:43;19.10;42.60
76139;DHT22;65138;50.946;7.074;2023-01-24T13:41:33;19.20;42.60
76139;DHT22;65138;50.946;7.074;2023-01-24T13:51:47;19.20;42.90
76139;DHT22;65138;50.946;7.074;2023-01-24T13:54:26;19.20;43.10
76139;DHT22;65138;50.946;7.074;2023-01-24T13:57:10;19.20;42.90
76139;DHT22;65138;50.946;7.074;2023-01-24T13:59:42;19.20;43.10
76139;DHT22;65138;50.946;7.074;2023-01-24T14:02:33;19.20;43.10
76139;DHT22;65138;50.946;7.074;2023-01-24T14:05:01;19.20;43.10
76139;DHT22;65138;50.946;7.074;2023-01-24T14:07:36;19.20;43.10
76139;DHT22;65138;50.946;7.074;2023-01-24T14:10:04;19.20;43.10
76139;DHT22;65138;50.946;7.074;2023-01-24T14:12:36;19.20;43.10
76139;DHT22;65138;50.946;7.074;2023-01-24T14:20:19;19.20;43.20
76139;DHT22;65138;50.946;7.074;2023-01-24T14:22:46;19.30;43.30
76139;DHT22;65138;50.946;7.074;2023-01-24T14:28:14;19.30;43.20
76139;DHT22;65138;50.946;7.074;2023-01-24T14:30:47;19.30;43.20
76139;DHT22;65138;50.946;7.074;2023-01-24T14:33:33;19.20;43.00
76139;DHT22;65138;50.946;7.074;2023-01-24T14:38:37;19.10;42.80
76139;DHT22;65138;50.946;7.074;2023-01-24T14:41:03;19.20;43.00
76139;DHT22;65138;50.946;7.074;2023-01-24T14:43:38;19.20;43.10
76139;DHT22;65138;50.946;7.074;2023-01-24T14:46:12;19.20;43.10
76139;DHT22;65138;50.946;7.074;2023-01-24T14:48:38;19.20;43.20
76139;DHT22;65138;50.946;7.074;2023-01-24T14:51:06;19.20;43.30
76139;DHT22;65138;50.946;7.074;2023-01-24T14:53:33;19.20;43.20
76139;DHT22;65138;50.946;7.074;2023-01-24T14:56:08;19.20;44.60
76139;DHT22;65138;50.946;7.074;2023-01-24T14:58:37;19.20;43.20
76139;DHT22;65138;50.946;7.074;2023-01-24T15:01:03;19.20;43.30
76139;DHT22;65138;50.946;7.074;2023-01-24T15:03:45;19.20;43.30
76139;DHT22;65138;50.946;7.074;2023-01-24T15:06:17;19.20;43.40
76139;DHT22;65138;50.946;7.074;2023-01-24T15:08:42;19.20;43.30
76139;DHT22;65138;50.946;7.074;2023-01-24T15:11:19;19.20;43.10
76139;DHT22;65138;50.946;7.074;2023-01-24T15:13:49;19.20;43.30
76139;DHT22;65138;50.946;7.074;2023-01-24T15:16:21;19.20;43.40
76139;DHT22;65138;50.946;7.074;2023-01-24T15:18:50;19.20;43.30
76139;DHT22;65138;50.946;7.074;2023-01-24T15:21:43;19.20;43.30
76139;DHT22;65138;50.946;7.074;2023-01-24T15:24:29;19.20;43.30
76139;DHT22;65138;50.946;7.074;2023-01-24T15:26:57;19.20;43.30
76139;DHT22;65138;50.946;7.074;2023-01-24T15:29:46;19.00;43.50
76139;DHT22;65138;50.946;7.074;2023-01-24T15:32:19;17.30;43.50
76139;DHT22;65138;50.946;7.074;2023-01-24T15:34:45;17.80;43.20
76139;DHT22;65138;50.946;7.074;2023-01-24T15:37:13;18.30;42.90
76139;DHT22;65138;50.946;7.074;2023-01-24T15:39:39;18.60;43.00
76139;DHT22;65138;50.946;7.074;2023-01-24T15:42:17;18.70;43.10
76139;DHT22;65138;50.946;7.074;2023-01-24T15:45:03;18.80;43.10
76139;DHT22;65138;50.946;7.074;2023-01-24T15:47:29;18.90;43.30
76139;DHT22;65138;50.946;7.074;2023-01-24T15:50:23;18.90;43.50
76139;DHT22;65138;50.946;7.074;2023-01-24T15:53:24;19.00;44.10
76139;DHT22;65138;50.946;7.074;2023-01-24T15:55:53;19.00;43.60
76139;DHT22;65138;50.946;7.074;2023-01-24T15:58:20;19.00;43.60
76139;DHT22;65138;50.946;7.074;2023-01-24T16:00:57;19.00;43.70
76139;DHT22;65138;50.946;7.074;2023-01-24T16:03:23;19.00;43.80
76139;DHT22;65138;50.946;7.074;2023-01-24T16:05:49;19.00;43.90
76139;DHT22;65138;50.946;7.074;2023-01-24T16:08:15;19.00;43.90
76139;DHT22;65138;50.946;7.074;2023-01-24T16:10:41;19.00;44.00
76139;DHT22;65138;50.946;7.074;2023-01-24T16:13:32;19.00;44.00
76139;DHT22;65138;50.946;7.074;2023-01-24T16:15:59;19.00;44.00
76139;DHT22;65138;50.946;7.074;2023-01-24T16:18:25;19.00;44.00
76139;DHT22;65138;50.946;7.074;2023-01-24T16:20:51;19.00;43.90
76139;DHT22;65138;50.946;7.074;2023-01-24T16:23:17;19.00;44.00
76139;DHT22;65138;50.946;7.074;2023-01-24T16:25:43;19.00;44.10
76139;DHT22;65138;50.946;7.074;2023-01-24T16:28:19;19.00;44.00
76139;DHT22;65138;50.946;7.074;2023-01-24T16:30:46;19.00;44.20
76139;DHT22;65138;50.946;7.074;2023-01-24T16:33:18;19.00;44.20
76139;DHT22;65138;50.946;7.074;2023-01-24T16:35:45;19.00;44.20
76139;DHT22;65138;50.946;7.074;2023-01-24T16:38:11;19.00;44.20
76139;DHT22;65138;50.946;7.074;2023-01-24T16:40:38;19.00;44.30
76139;DHT22;65138;50.946;7.074;2023-01-24T16:43:05;19.10;44.30
76139;DHT22;65138;50.946;7.074;2023-01-24T16:45:32;19.00;44.40
76139;DHT22;65138;50.946;7.074;2023-01-24T16:47:58;19.00;44.40
76139;DHT22;65138;50.946;7.074;2023-01-24T16:50:24;19.00;44.60
76139;DHT22;65138;50.946;7.074;2023-01-24T16:52:50;19.10;44.40
76139;DHT22;65138;50.946;7.074;2023-01-24T16:55:18;19.10;44.40
76139;DHT22;65138;50.946;7.074;2023-01-24T16:57:44;19.10;44.40
76139;DHT22;65138;50.946;7.074;2023-01-24T17:00:11;19.10;44.40
76139;DHT22;65138;50.946;7.074;2023-01-24T17:02:41;19.10;44.40
76139;DHT22;65138;50.946;7.074;2023-01-24T17:05:08;19.10;44.40
76139;DHT22;65138;50.946;7.074;2023-01-24T17:07:34;19.10;44.40
76139;DHT22;65138;50.946;7.074;2023-01-24T17:09:59;19.10;44.50
76139;DHT22;65138;50.946;7.074;2023-01-24T17:12:28;19.10;44.40
76139;DHT22;65138;50.946;7.074;2023-01-24T17:14:54;19.10;44.50
76139;DHT22;65138;50.946;7.074;2023-01-24T17:17:19;19.10;44.40
76139;DHT22;65138;50.946;7.074;2023-01-24T17:19:45;19.10;44.40
76139;DHT22;65138;50.946;7.074;2023-01-24T17:22:11;19.10;44.40
76139;DHT22;65138;50.946;7.074;2023-01-24T17:24:36;19.10;44.40
76139;DHT22;65138;50.946;7.074;2023-01-24T17:27:02;19.10;44.40
76139;DHT22;65138;50.946;7.074;2023-01-24T17:29:28;19.10;44.40
76139;DHT22;65138;50.946;7.074;2023-01-24T17:31:54;19.10;44.40
76139;DHT22;65138;50.946;7.074;2023-01-24T17:34:20;19.10;44.40